KHVR/HVR METAR and TAF weather

Enter ICAO airport designator
Station Type Date Time Source
KHVR METAR 2020/09/18 06:53 UTC NOAA

KHVR 180653Z AUTO 07009KT 10SM CLR 13/06 A3011 RMK AO2 SLP189 T01280061 402390050


Station Type Date Time Source
KHVR Decoded METAR 2020/09/18 06:53 UTC NOAA

HAVRE CITY-COUNTY AIRPORT, MT, United States (KHVR) 48-33N 109-46W 787M
Sep 18, 2020 - 02:53 AM EDT / 2020.09.18 0653 UTC
Wind: from the ENE (070 degrees) at 10 MPH (9 KT):0
Visibility: 10 mile(s):0
Sky conditions: clear
Temperature: 55.0 F (12.8 C)
Dew Point: 43.0 F (6.1 C)
Relative Humidity: 63%
Pressure (altimeter): 30.11 in. Hg (1019 hPa)
ob: KHVR 180653Z AUTO 07009KT 10SM CLR 13/06 A3011 RMK AO2 SLP189 T01280061 402390050
cycle: 7

Station Type Date Time Source
KHVR TAF 2020/09/18 06:40 UTC NOAA

TAF KHVR 180538Z 1806/1906 09010KT P6SM SKC
FM190200 10010G18KT P6SM BKN150

Example: see airport list